Time;durP1;ratioP1;P1;durP2;ratioP2;P2;SDS_P1;SDS_P2;PMS_P1;PMS_P2;Temp;Humidity;BMP_temperature;BMP_pressure;BME280_temperature;BME280_humidity;BME280_pressure;Samples;Min_cycle;Max_cycle;Signal;HPM_P1;HPM_P2
2023/03/22 00:02:03;;;;;;;41.70;26.10;;;;;;;0.84;85.33;100475.18;102523;278;96075;-59
2023/03/22 00:04:43;;;;;;;37.70;26.30;;;;;;;0.80;85.36;100471.61;102530;278;120263;-57
2023/03/22 00:07:17;;;;;;;39.20;25.70;;;;;;;0.84;85.59;100466.50;102542;279;105130;-57
2023/03/22 00:09:57;;;;;;;38.50;26.10;;;;;;;0.85;85.62;100465.85;102522;278;113967;-55
2023/03/22 00:12:39;;;;;;;39.60;27.10;;;;;;;0.92;85.72;100465.68;102490;279;95304;-54
2023/03/22 00:15:14;;;;;;;41.60;26.80;;;;;;;0.91;85.73;100458.82;102557;279;98068;-52
2023/03/22 00:17:57;;;;;;;38.80;26.20;;;;;;;0.90;85.79;100456.23;102501;278;118422;-52
2023/03/22 00:20:40;;;;;;;33.50;24.70;;;;;;;0.86;85.74;100456.03;102516;278;104160;-58
2023/03/22 00:23:15;;;;;;;36.40;24.50;;;;;;;0.81;85.71;100449.77;102496;278;114998;-59
2023/03/22 00:25:57;;;;;;;41.30;25.80;;;;;;;0.79;85.74;100451.63;102535;278;95217;-54
2023/03/22 00:28:38;;;;;;;38.70;25.80;;;;;;;0.76;85.69;100449.63;102488;278;97970;-54
2023/03/22 00:31:24;;;;;;;38.50;25.60;;;;;;;0.69;85.61;100449.35;102480;278;120493;-57
2023/03/22 00:33:59;;;;;;;36.40;25.30;;;;;;;0.67;85.71;100446.66;102490;278;103829;-53
2023/03/22 00:36:37;;;;;;;34.20;23.80;;;;;;;0.66;85.71;100450.83;102487;279;113067;-53
2023/03/22 00:39:20;;;;;;;38.90;26.40;;;;;;;0.64;85.82;100450.79;102543;279;95719;-57
2023/03/22 00:42:01;;;;;;;37.30;24.10;;;;;;;0.62;85.82;100447.23;102503;279;98033;-57
2023/03/22 00:44:42;;;;;;;36.20;24.90;;;;;;;0.61;85.97;100449.73;102521;278;119610;-60
2023/03/22 00:47:28;;;;;;;38.40;26.10;;;;;;;0.58;85.83;100447.37;102539;279;105270;-59
2023/03/22 00:50:08;;;;;;;36.60;24.60;;;;;;;0.55;85.92;100443.52;102540;279;113953;-53
2023/03/22 00:52:48;;;;;;;43.20;26.80;;;;;;;0.54;85.99;100441.29;102493;279;92758;-54
2023/03/22 00:55:25;;;;;;;41.20;26.90;;;;;;;0.52;85.95;100440.54;102560;279;98447;-59
2023/03/22 00:58:14;;;;;;;41.50;27.80;;;;;;;0.47;85.95;100432.13;102490;279;120030;-59
2023/03/22 01:00:53;;;;;;;44.10;27.30;;;;;;;0.45;85.93;100426.81;102557;278;105978;-57
2023/03/22 01:03:38;;;;;;;39.30;26.80;;;;;;;0.43;85.96;100425.73;102493;279;113260;-57
2023/03/22 01:06:20;;;;;;;38.40;26.10;;;;;;;0.45;86.05;100421.13;102503;279;94103;-60
2023/03/22 01:08:56;;;;;;;42.50;27.00;;;;;;;0.45;86.06;100418.48;102311;279;97865;-56
2023/03/22 01:11:37;;;;;;;39.50;25.20;;;;;;;0.46;86.23;100416.82;102532;279;121219;-58
2023/03/22 01:14:15;;;;;;;;;;;;;;;0.50;86.30;100418.23;102530;279;106121;-58
2023/03/22 01:16:53;;;;;;;37.90;24.40;;;;;;;0.51;86.29;100417.27;102480;279;113851;-57
2023/03/22 01:19:31;;;;;;;35.30;24.70;;;;;;;0.53;86.44;100420.10;102511;279;94893;-55
2023/03/22 01:22:08;;;;;;;34.30;23.40;;;;;;;0.58;86.55;100419.55;102539;279;96977;-54
2023/03/22 01:24:48;;;;;;;33.30;22.40;;;;;;;0.61;86.61;100416.29;102479;279;120135;-53
2023/03/22 01:27:26;;;;;;;35.60;22.80;;;;;;;0.66;86.62;100417.48;102509;279;105498;-53
2023/03/22 01:30:06;;;;;;;34.30;23.10;;;;;;;0.68;86.70;100419.80;102471;279;113336;-58
2023/03/22 01:32:45;;;;;;;33.10;22.60;;;;;;;0.69;86.67;100417.95;102494;279;94841;-57
2023/03/22 01:35:29;;;;;;;33.00;22.20;;;;;;;0.67;86.71;100415.46;102496;279;97069;-58
2023/03/22 01:38:17;;;;;;;38.70;23.80;;;;;;;0.64;86.77;100413.40;102503;279;119157;-57
2023/03/22 01:40:57;;;;;;;33.30;23.30;;;;;;;0.66;86.78;100409.89;102492;279;105250;-53
2023/03/22 01:43:42;;;;;;;36.00;23.00;;;;;;;0.61;86.76;100410.29;102508;279;113481;-54
2023/03/22 01:46:28;;;;;;;33.50;23.00;;;;;;;0.53;86.69;100407.35;102530;279;95028;-55
2023/03/22 01:49:11;;;;;;;35.40;23.90;;;;;;;0.49;86.74;100403.96;102270;279;98414;-57
2023/03/22 01:51:49;;;;;;;35.50;22.60;;;;;;;0.50;86.72;100398.90;102517;279;119638;-58
2023/03/22 01:54:31;;;;;;;33.50;21.60;;;;;;;0.51;86.65;100400.30;102535;279;104813;-55
2023/03/22 01:57:06;;;;;;;29.90;20.70;;;;;;;0.49;86.77;100396.48;102496;279;114417;-55
2023/03/22 01:59:45;;;;;;;33.40;21.20;;;;;;;0.51;86.78;100394.40;102560;279;93657;-55
2023/03/22 02:02:24;;;;;;;32.30;22.60;;;;;;;0.49;86.84;100393.52;102573;279;98451;-55
2023/03/22 02:05:08;;;;;;;32.80;21.10;;;;;;;0.52;86.93;100385.10;102524;279;119781;-59
2023/03/22 02:07:46;;;;;;;31.50;20.70;;;;;;;0.56;86.86;100388.88;102505;279;105777;-59
2023/03/22 02:10:28;;;;;;;34.30;22.10;;;;;;;0.58;86.97;100387.44;102509;279;113048;-58
2023/03/22 02:13:37;;;;;;;32.50;21.80;;;;;;;0.62;87.00;100386.41;102484;279;95602;-59
2023/03/22 02:16:34;;;;;;;31.60;20.80;;;;;;;0.65;86.90;100382.46;102535;279;98074;-58
2023/03/22 02:19:41;;;;;;;35.50;21.10;;;;;;;0.61;86.90;100383.31;102507;279;119378;-59
2023/03/22 02:22:51;;;;;;;35.40;21.50;;;;;;;0.55;86.93;100377.03;102526;279;106050;-58
2023/03/22 02:26:11;;;;;;;34.70;21.90;;;;;;;0.52;87.02;100376.95;102277;279;114419;-58
2023/03/22 02:29:07;;;;;;;34.90;21.60;;;;;;;0.46;87.05;100377.28;102254;279;95777;-57
2023/03/22 02:32:26;;;;;;;32.90;21.70;;;;;;;0.42;87.00;100373.05;102516;279;97737;-59
2023/03/22 02:35:31;;;;;;;31.40;20.60;;;;;;;0.39;86.94;100373.13;102453;279;120421;-58
2023/03/22 02:41:55;;;;;;;34.40;21.20;;;;;;;0.45;87.44;100365.83;102490;279;114811;-59
2023/03/22 02:44:43;;;;;;;33.80;21.50;;;;;;;0.58;87.81;100360.71;102557;279;95232;-54
2023/03/22 02:47:30;;;;;;;34.30;20.50;;;;;;;0.63;87.74;100366.91;102512;279;96353;-53
2023/03/22 02:50:17;;;;;;;34.40;20.90;;;;;;;0.64;87.89;100365.21;102513;279;119971;-59
2023/03/22 02:53:02;;;;;;;31.90;20.10;;;;;;;0.69;87.87;100360.17;102503;278;104801;-59
2023/03/22 02:55:39;;;;;;;;;;;;;;;0.74;87.86;100355.84;102531;279;114528;-55
2023/03/22 02:58:20;;;;;;;30.70;19.50;;;;;;;0.77;87.95;100354.02;102481;278;96186;-55
2023/03/22 03:01:01;;;;;;;32.90;19.50;;;;;;;0.78;87.91;100347.56;102559;278;98190;-57
2023/03/22 03:03:41;;;;;;;30.30;20.40;;;;;;;0.79;87.99;100343.16;102527;279;119080;-58
2023/03/22 03:06:24;;;;;;;33.70;19.60;;;;;;;0.80;88.06;100342.02;102522;278;104759;-59
2023/03/22 03:09:08;;;;;;;31.80;19.60;;;;;;;0.84;88.02;100339.95;102526;279;115053;-56
2023/03/22 03:11:47;;;;;;;30.80;19.90;;;;;;;0.84;87.92;100341.48;102528;278;94488;-54
2023/03/22 03:14:33;;;;;;;28.40;18.40;;;;;;;0.79;87.83;100345.67;102513;278;97620;-53
2023/03/22 03:17:27;;;;;;;30.60;19.70;;;;;;;0.75;87.85;100346.90;102500;279;122422;-53
2023/03/22 03:20:30;;;;;;;29.70;18.80;;;;;;;0.71;87.82;100349.55;102517;278;106094;-55
2023/03/22 03:23:23;;;;;;;33.90;20.90;;;;;;;0.67;87.66;100350.73;102528;279;114784;-55
2023/03/22 03:26:04;;;;;;;32.90;20.40;;;;;;;0.63;87.68;100345.97;102524;279;96330;-52
2023/03/22 03:28:51;;;;;;;33.30;20.30;;;;;;;0.62;87.80;100340.58;102511;279;96120;-54
2023/03/22 03:31:37;;;;;;;33.90;20.80;;;;;;;0.54;87.87;100337.64;102491;279;120412;-54
2023/03/22 03:34:23;;;;;;;32.90;21.00;;;;;;;0.50;87.82;100336.73;102464;278;104859;-55
2023/03/22 03:37:09;;;;;;;31.10;21.20;;;;;;;0.51;88.03;100338.59;102501;278;114136;-54
2023/03/22 03:39:53;;;;;;;34.70;21.20;;;;;;;0.51;88.13;100333.11;102519;279;95035;-58
2023/03/22 03:42:37;;;;;;;35.90;21.20;;;;;;;0.55;88.29;100334.70;102475;278;96375;-57
2023/03/22 03:45:14;;;;;;;34.70;21.90;;;;;;;0.61;88.38;100332.16;102538;279;121664;-53
2023/03/22 03:47:55;;;;;;;31.40;20.00;;;;;;;0.69;88.81;100329.87;102475;279;104883;-54
2023/03/22 03:50:33;;;;;;;33.90;21.00;;;;;;;0.73;88.86;100331.33;102522;279;114717;-54
2023/03/22 03:53:12;;;;;;;34.30;21.00;;;;;;;0.88;89.31;100331.40;102482;278;95543;-54
2023/03/22 03:55:56;;;;;;;36.80;22.90;;;;;;;0.91;89.28;100327.09;102520;278;97775;-59
2023/03/22 03:58:33;;;;;;;37.30;22.70;;;;;;;0.98;89.49;100327.20;102499;278;120766;-60
2023/03/22 04:01:08;;;;;;;33.10;21.20;;;;;;;0.96;89.29;100325.05;102565;279;106754;-59
2023/03/22 04:03:45;;;;;;;29.50;19.80;;;;;;;0.99;89.23;100327.27;102472;278;114241;-58
2023/03/22 04:06:21;;;;;;;31.10;20.30;;;;;;;0.98;89.14;100328.45;102485;278;94936;-59
2023/03/22 04:08:56;;;;;;;;;;;;;;;0.95;88.99;100331.18;102502;279;98310;-57
2023/03/22 04:11:34;;;;;;;31.70;20.00;;;;;;;0.94;88.88;100326.30;102507;278;120337;-58
2023/03/22 04:14:13;;;;;;;30.30;19.80;;;;;;;0.91;88.94;100324.23;102536;278;106529;-59
2023/03/22 04:16:53;;;;;;;30.70;21.10;;;;;;;0.95;89.02;100322.65;102472;279;114086;-59
2023/03/22 04:19:27;;;;;;;32.00;20.00;;;;;;;0.95;89.06;100324.83;102530;279;94121;-58
2023/03/22 04:22:13;;;;;;;33.70;20.50;;;;;;;0.94;89.00;100327.55;102337;279;96828;-58
2023/03/22 04:24:50;;;;;;;34.00;19.80;;;;;;;0.91;88.93;100320.70;102554;279;120773;-54
2023/03/22 04:27:30;;;;;;;32.60;21.30;;;;;;;0.90;88.90;100319.05;102546;279;104389;-53
2023/03/22 04:30:11;;;;;;;31.90;21.10;;;;;;;0.89;89.01;100322.45;102541;279;113457;-55
2023/03/22 04:32:46;;;;;;;33.00;20.50;;;;;;;0.91;89.10;100322.29;102501;279;95087;-55
2023/03/22 04:35:20;;;;;;;31.70;19.70;;;;;;;0.94;89.02;100325.63;102502;279;98041;-54
2023/03/22 04:38:06;;;;;;;33.80;20.90;;;;;;;0.93;88.98;100328.70;102530;279;120854;-53
2023/03/22 04:40:48;;;;;;;33.30;20.00;;;;;;;0.95;89.02;100328.52;102555;279;104623;-53
2023/03/22 04:43:33;;;;;;;30.50;19.30;;;;;;;0.97;89.07;100326.58;102488;279;115083;-55
2023/03/22 04:46:11;;;;;;;31.90;20.30;;;;;;;1.00;89.04;100326.27;102510;279;93814;-52
2023/03/22 04:48:55;;;;;;;32.70;21.00;;;;;;;1.08;89.30;100322.41;102545;279;96878;-52
2023/03/22 04:51:34;;;;;;;34.40;21.90;;;;;;;1.17;89.33;100326.64;102384;279;120838;-58
2023/03/22 04:54:09;;;;;;;34.10;22.30;;;;;;;1.34;89.70;100320.52;102521;278;105385;-59
2023/03/22 04:56:46;;;;;;;33.60;22.30;;;;;;;1.46;90.00;100317.84;102556;278;114563;-58
2023/03/22 04:59:25;;;;;;;31.50;20.20;;;;;;;1.62;90.22;100318.89;102546;278;94850;-54
2023/03/22 05:02:02;;;;;;;32.60;21.10;;;;;;;1.72;90.24;100324.40;102527;278;96723;-54
2023/03/22 05:04:39;;;;;;;34.10;22.10;;;;;;;1.90;90.45;100322.66;102561;278;121585;-59
2023/03/22 05:07:21;;;;;;;32.00;20.90;;;;;;;2.03;90.71;100325.23;102497;278;104283;-58
2023/03/22 05:10:00;;;;;;;32.00;21.70;;;;;;;2.08;90.41;100322.27;102534;278;113982;-57
2023/03/22 05:12:39;;;;;;;29.20;20.70;;;;;;;2.30;90.92;100324.02;102350;278;95644;-57
2023/03/22 05:15:14;;;;;;;28.00;19.10;;;;;;;2.48;90.71;100321.98;102456;269;98231;-53
2023/03/22 05:17:58;;;;;;;32.10;21.70;;;;;;;2.64;90.74;100323.15;102542;278;119872;-54
2023/03/22 05:20:40;;;;;;;33.00;21.80;;;;;;;3.38;91.18;100324.54;102565;278;105935;-60
2023/03/22 05:23:19;;;;;;;29.00;21.00;;;;;;;3.69;90.62;100322.46;102545;278;114181;-59
2023/03/22 05:25:57;;;;;;;31.50;20.90;;;;;;;3.84;90.74;100323.96;102529;278;95187;-54
2023/03/22 05:28:31;;;;;;;31.50;21.80;;;;;;;4.04;90.60;100324.51;102493;278;97014;-54
2023/03/22 05:31:10;;;;;;;28.90;20.70;;;;;;;4.15;90.43;100324.84;102515;278;120575;-51
2023/03/22 05:33:54;;;;;;;26.70;19.10;;;;;;;4.29;90.27;100324.86;102544;278;104590;-54
2023/03/22 05:36:36;;;;;;;26.90;19.00;;;;;;;4.55;90.33;100323.94;102373;280;114076;-54
2023/03/22 05:39:14;;;;;;;26.60;18.00;;;;;;;4.73;90.10;100327.79;102529;278;95854;-57
2023/03/22 05:41:58;;;;;;;25.70;17.90;;;;;;;4.92;90.06;100326.17;102516;278;97588;-58
2023/03/22 05:44:36;;;;;;;24.60;17.20;;;;;;;5.09;89.96;100325.19;102497;278;121276;-52
2023/03/22 05:47:15;;;;;;;24.90;17.60;;;;;;;5.30;89.78;100322.78;102530;278;105255;-53
2023/03/22 05:49:50;;;;;;;25.40;19.50;;;;;;;5.44;89.56;100313.36;102522;278;113819;-55
2023/03/22 05:52:25;;;;;;;24.50;17.80;;;;;;;5.68;89.47;100315.31;102520;278;97933;-55
2023/03/22 05:55:01;;;;;;;23.60;17.70;;;;;;;6.23;89.50;100320.33;102571;278;98392;-60
2023/03/22 05:57:35;;;;;;;22.90;17.20;;;;;;;7.75;89.21;100317.03;102559;278;119129;-59
2023/03/22 06:00:13;;;;;;;;;;;;;;;9.13;87.96;100315.20;102575;278;105394;-53
2023/03/22 06:02:55;;;;;;;20.20;16.70;;;;;;;10.71;86.49;100312.05;102506;278;114715;-54
2023/03/22 06:05:35;;;;;;;19.80;17.50;;;;;;;12.14;84.96;100312.70;102531;278;93486;-58
2023/03/22 06:08:14;;;;;;;20.10;17.40;;;;;;;13.68;83.85;100305.06;102520;278;96789;-58
2023/03/22 06:10:53;;;;;;;18.60;16.50;;;;;;;14.54;79.89;100310.23;102554;278;118502;-54
2023/03/22 06:13:28;;;;;;;22.60;17.10;;;;;;;15.13;78.77;100305.52;102523;278;106244;-54
2023/03/22 06:16:06;;;;;;;19.50;16.40;;;;;;;15.56;75.77;100305.17;102528;278;115627;-58
2023/03/22 06:18:47;;;;;;;16.90;14.80;;;;;;;15.78;74.12;100302.44;102534;278;95537;-58
2023/03/22 06:21:26;;;;;;;16.20;14.10;;;;;;;15.89;72.23;100300.61;102526;278;95633;-53
2023/03/22 06:24:03;;;;;;;16.30;14.00;;;;;;;15.71;72.25;100301.30;102520;278;120703;-55
2023/03/22 06:26:38;;;;;;;16.50;13.80;;;;;;;15.36;70.12;100302.70;102521;278;105515;-53
2023/03/22 06:29:16;;;;;;;14.40;12.90;;;;;;;14.57;69.38;100307.45;102569;278;113346;-55
2023/03/22 06:31:54;;;;;;;16.60;12.90;;;;;;;13.48;68.19;100305.60;102528;278;94529;-56
2023/03/22 06:34:34;;;;;;;16.00;14.30;;;;;;;12.54;68.04;100312.53;102502;278;96919;-56
2023/03/22 06:37:10;;;;;;;14.40;12.80;;;;;;;11.72;68.21;100308.30;102559;278;119579;-56
2023/03/22 06:39:50;;;;;;;14.20;12.70;;;;;;;11.07;68.43;100309.84;102575;278;105333;-55
2023/03/22 06:42:30;;;;;;;14.60;12.90;;;;;;;10.71;69.05;100317.63;102549;278;114114;-55
2023/03/22 06:45:13;;;;;;;16.10;12.70;;;;;;;10.18;69.29;100307.42;102532;278;94413;-59
2023/03/22 06:47:54;;;;;;;15.80;12.70;;;;;;;9.89;69.17;100302.55;102492;278;97708;-59
2023/03/22 06:50:32;;;;;;;15.20;13.30;;;;;;;9.68;69.86;100305.70;102543;278;120903;-55
2023/03/22 06:53:12;;;;;;;14.90;13.10;;;;;;;9.65;70.14;100305.16;102516;278;105634;-55
2023/03/22 06:55:48;;;;;;;16.70;13.00;;;;;;;9.75;70.27;100300.67;102555;278;114942;-55
2023/03/22 06:58:21;;;;;;;;;;;;;;;9.88;70.93;100303.92;102510;278;94077;-56
2023/03/22 07:01:01;;;;;;;16.80;13.90;;;;;;;9.93;70.54;100301.79;102551;278;97813;-53
2023/03/22 07:03:44;;;;;;;16.60;13.00;;;;;;;9.90;70.63;100302.98;102515;278;120195;-54
2023/03/22 07:06:25;;;;;;;15.00;13.10;;;;;;;9.54;70.11;100302.16;102531;278;104520;-58
2023/03/22 07:09:01;;;;;;;15.00;12.70;;;;;;;9.32;70.47;100297.13;102578;278;114798;-56
2023/03/22 07:11:39;;;;;;;16.40;13.40;;;;;;;9.13;70.88;100297.08;102531;278;94701;-54
2023/03/22 07:14:18;;;;;;;15.80;12.40;;;;;;;9.09;71.38;100294.73;102533;278;98581;-54
2023/03/22 07:17:03;;;;;;;14.80;12.40;;;;;;;9.17;71.64;100295.11;102556;278;121830;-53
2023/03/22 07:19:41;;;;;;;14.20;12.00;;;;;;;9.34;71.83;100291.08;102553;278;103273;-55
2023/03/22 07:22:21;;;;;;;17.00;12.90;;;;;;;9.52;71.96;100290.73;102527;278;114484;-55
2023/03/22 07:25:00;;;;;;;15.40;12.80;;;;;;;9.53;71.88;100283.19;102537;278;94724;-58
2023/03/22 07:27:46;;;;;;;15.70;12.90;;;;;;;9.56;72.14;100275.01;102531;278;96592;-57
2023/03/22 07:30:25;;;;;;;16.80;12.90;;;;;;;9.82;72.48;100277.36;102555;278;120378;-60
2023/03/22 07:33:05;;;;;;;18.10;13.60;;;;;;;10.46;72.42;100280.86;102581;278;105040;-59
2023/03/22 07:35:40;;;;;;;15.20;12.50;;;;;;;11.00;71.94;100279.01;102107;278;538586;-58
2023/03/22 07:38:19;;;;;;;14.90;12.50;;;;;;;11.27;71.57;100279.70;102470;278;93500;-56
2023/03/22 07:41:01;;;;;;;15.10;12.90;;;;;;;11.55;71.66;100279.81;102557;278;98632;-55
2023/03/22 07:43:38;;;;;;;13.60;12.00;;;;;;;11.81;70.22;100277.23;102538;278;121218;-58
2023/03/22 07:46:12;;;;;;;14.10;12.00;;;;;;;12.37;70.55;100275.27;102513;278;104043;-55
2023/03/22 07:48:55;;;;;;;16.20;13.30;;;;;;;13.22;70.86;100273.09;102496;278;113919;-60
2023/03/22 07:51:40;;;;;;;13.60;11.40;;;;;;;14.04;69.44;100261.54;102508;278;94458;-55
2023/03/22 07:54:16;;;;;;;13.50;11.90;;;;;;;14.03;68.87;100263.17;102581;278;95718;-55
2023/03/22 07:56:54;;;;;;;16.30;12.40;;;;;;;14.11;68.66;100260.42;102499;278;120084;-55
2023/03/22 07:59:31;;;;;;;14.10;12.30;;;;;;;14.53;67.58;100262.31;102545;278;104830;-55
2023/03/22 08:02:09;;;;;;;13.60;12.20;;;;;;;15.26;66.76;100255.59;102527;278;113169;-60
2023/03/22 08:04:51;;;;;;;14.30;12.30;;;;;;;16.49;65.61;100248.78;102543;278;95411;-55
2023/03/22 08:07:31;;;;;;;13.80;12.40;;;;;;;17.29;63.76;100247.17;102503;278;98465;-56
2023/03/22 08:10:09;;;;;;;14.70;12.20;;;;;;;17.37;62.96;100245.89;102536;278;121400;-55
2023/03/22 08:12:50;;;;;;;14.40;12.30;;;;;;;17.21;62.34;100250.33;102541;278;105828;-55
2023/03/22 08:15:42;;;;;;;12.70;11.40;;;;;;;16.68;61.65;100249.65;102537;278;112820;-61
2023/03/22 08:18:17;;;;;;;12.50;11.30;;;;;;;16.33;60.93;100248.46;102496;278;94661;-60
2023/03/22 08:20:55;;;;;;;13.80;11.60;;;;;;;16.06;60.99;100245.29;102590;278;98071;-54
2023/03/22 08:23:30;;;;;;;12.50;11.20;;;;;;;15.66;61.33;100241.92;102534;278;120033;-56
2023/03/22 08:26:16;;;;;;;13.20;11.70;;;;;;;15.37;61.89;100239.56;102527;278;104578;-56
2023/03/22 08:28:58;;;;;;;12.40;11.00;;;;;;;15.25;62.14;100234.23;102498;267;113447;-56
2023/03/22 08:31:40;;;;;;;13.70;12.30;;;;;;;14.88;61.65;100233.39;102475;278;94911;-56
2023/03/22 08:34:18;;;;;;;13.90;12.50;;;;;;;14.42;61.40;100231.27;102547;278;97653;-54
2023/03/22 08:36:55;;;;;;;14.30;12.10;;;;;;;13.95;61.82;100232.77;102510;278;120405;-55
2023/03/22 08:39:35;;;;;;;13.50;12.10;;;;;;;13.62;62.03;100231.27;102556;278;105540;-60
2023/03/22 08:42:14;;;;;;;15.50;12.40;;;;;;;13.26;62.79;100233.85;102528;278;114847;-60
2023/03/22 08:44:54;;;;;;;14.60;13.00;;;;;;;13.23;63.27;100231.13;102578;278;95037;-60
2023/03/22 08:47:41;;;;;;;14.00;12.10;;;;;;;13.13;63.78;100233.61;102536;278;96848;-60
2023/03/22 08:50:26;;;;;;;15.20;12.80;;;;;;;13.22;63.82;100230.25;102550;278;119592;-59
2023/03/22 08:53:04;;;;;;;13.60;11.00;;;;;;;13.18;64.06;100232.98;102546;278;105129;-58
2023/03/22 08:55:43;;;;;;;15.60;12.20;;;;;;;13.16;64.39;100239.48;102532;278;113457;-55
2023/03/22 08:58:19;;;;;;;13.30;11.70;;;;;;;13.12;64.52;100240.13;102525;278;94924;-55
2023/03/22 09:00:55;;;;;;;15.20;12.60;;;;;;;13.00;64.21;100240.96;102553;278;95874;-55
2023/03/22 09:03:30;;;;;;;13.50;12.10;;;;;;;12.83;64.08;100240.59;102544;278;120853;-55
2023/03/22 09:06:05;;;;;;;13.50;11.10;;;;;;;12.74;64.43;100234.29;102569;278;104537;-56
2023/03/22 09:08:51;;;;;;;12.90;11.50;;;;;;;12.72;64.87;100236.15;102538;278;115301;-56
2023/03/22 09:11:34;;;;;;;14.30;12.00;;;;;;;12.55;65.09;100241.25;102519;278;94627;-55
2023/03/22 09:14:17;;;;;;;14.70;13.00;;;;;;;12.44;65.18;100238.83;102565;278;97777;-59
2023/03/22 09:16:56;;;;;;;15.30;12.50;;;;;;;12.35;65.30;100238.77;102532;278;120314;-61
2023/03/22 09:19:37;;;;;;;13.10;11.70;;;;;;;12.29;65.57;100234.95;102545;278;105339;-56
2023/03/22 09:22:16;;;;;;;14.00;11.60;;;;;;;12.29;65.76;100224.95;102527;278;114680;-56
2023/03/22 09:24:54;;;;;;;14.50;11.60;;;;;;;12.27;65.94;100218.91;102546;278;93833;-56
2023/03/22 09:27:32;;;;;;;15.20;12.00;;;;;;;12.30;66.25;100217.88;102537;278;97610;-59
2023/03/22 09:30:08;;;;;;;13.10;11.10;;;;;;;12.36;66.29;100212.84;102519;278;120770;-58
2023/03/22 09:32:44;;;;;;;12.80;11.30;;;;;;;12.57;66.41;100213.91;102535;278;104857;-57
2023/03/22 09:35:23;;;;;;;14.20;12.20;;;;;;;12.75;66.31;100211.52;102530;278;114555;-59
2023/03/22 09:38:04;;;;;;;13.10;11.30;;;;;;;12.84;66.08;100207.60;102524;278;94510;-61
2023/03/22 09:41:00;;;;;;;11.90;10.60;;;;;;;12.85;65.97;100203.25;102513;278;97400;-60
2023/03/22 09:43:42;;;;;;;14.80;12.10;;;;;;;12.76;65.96;100195.34;102547;278;120622;-55
2023/03/22 09:46:24;;;;;;;14.80;11.60;;;;;;;12.79;65.83;100187.98;102518;278;105317;-59
2023/03/22 09:49:10;;;;;;;13.60;11.80;;;;;;;12.80;65.84;100186.74;102557;278;115143;-56
2023/03/22 09:51:50;;;;;;;13.50;11.70;;;;;;;12.77;65.92;100185.66;102531;278;94609;-60
2023/03/22 09:54:40;;;;;;;15.00;12.30;;;;;;;12.70;65.88;100188.58;102570;278;96851;-55
2023/03/22 09:57:27;;;;;;;14.20;11.70;;;;;;;12.70;65.96;100194.15;102553;278;120246;-56
2023/03/22 10:00:19;;;;;;;12.70;11.30;;;;;;;12.71;66.12;100192.95;102560;278;105750;-59
2023/03/22 10:03:10;;;;;;;13.70;11.90;;;;;;;12.71;66.03;100188.91;102522;278;113387;-59
2023/03/22 10:05:50;;;;;;;14.50;11.30;;;;;;;12.63;66.03;100195.00;102525;278;95011;-56
2023/03/22 10:08:43;;;;;;;13.80;11.50;;;;;;;12.58;66.06;100198.16;102522;278;96989;-55
2023/03/22 10:11:32;;;;;;;13.30;11.50;;;;;;;12.38;66.08;100192.05;102405;279;120309;-57
2023/03/22 10:14:26;;;;;;;12.70;10.60;;;;;;;12.36;65.90;100198.42;102511;278;105449;-60
2023/03/22 10:17:06;;;;;;;13.80;11.30;;;;;;;12.38;66.24;100195.46;102527;278;114273;-54
2023/03/22 10:19:54;;;;;;;12.80;11.10;;;;;;;12.36;66.21;100191.92;102531;278;94346;-60
2023/03/22 10:22:36;;;;;;;13.70;11.00;;;;;;;12.42;66.40;100192.52;102532;278;99396;-59
2023/03/22 10:25:17;;;;;;;16.30;12.80;;;;;;;12.45;66.35;100190.18;102525;278;120693;-59
2023/03/22 10:27:53;;;;;;;13.70;12.10;;;;;;;12.42;66.33;100186.08;102571;278;105487;-60
2023/03/22 10:30:34;;;;;;;13.60;11.40;;;;;;;12.43;66.18;100188.38;102532;278;113056;-55
2023/03/22 10:33:22;;;;;;;13.80;11.30;;;;;;;12.44;66.29;100189.71;102540;278;93602;-55
2023/03/22 10:35:59;;;;;;;15.80;11.30;;;;;;;12.31;66.45;100187.66;102607;278;97148;-54
2023/03/22 10:38:34;;;;;;;15.90;11.50;;;;;;;12.36;66.35;100184.49;102574;278;121126;-60
2023/03/22 10:41:10;;;;;;;12.90;10.90;;;;;;;12.53;66.56;100185.31;102556;278;105195;-56
2023/03/22 10:43:51;;;;;;;13.70;11.00;;;;;;;12.80;66.61;100181.73;102504;278;114781;-59
2023/03/22 10:46:33;;;;;;;14.90;11.70;;;;;;;12.99;65.89;100179.59;102427;278;92962;-55
2023/03/22 10:49:19;;;;;;;14.10;11.50;;;;;;;12.96;65.32;100178.14;102550;278;97164;-55
2023/03/22 10:52:00;;;;;;;12.80;11.10;;;;;;;12.85;65.52;100171.69;102550;278;119697;-54
2023/03/22 10:54:39;;;;;;;12.90;11.00;;;;;;;13.01;65.84;100167.08;102540;278;105146;-53
2023/03/22 10:57:14;;;;;;;12.70;10.90;;;;;;;13.07;66.02;100166.59;102501;278;114944;-55
2023/03/22 10:59:59;;;;;;;15.90;11.80;;;;;;;13.20;65.69;100163.28;102562;278;92103;-60
2023/03/22 11:02:47;;;;;;;14.70;10.90;;;;;;;13.29;65.88;100158.62;102529;278;97226;-60
2023/03/22 11:05:30;;;;;;;14.40;11.90;;;;;;;13.27;64.78;100158.80;102546;266;119965;-59
2023/03/22 11:08:19;;;;;;;12.60;10.90;;;;;;;13.12;65.00;100157.33;102500;278;104738;-58
2023/03/22 11:11:15;;;;;;;11.60;10.00;;;;;;;13.04;64.38;100159.98;102505;278;112600;-59
2023/03/22 11:14:02;;;;;;;12.00;10.50;;;;;;;12.97;64.63;100155.40;102525;278;95129;-56
2023/03/22 11:16:53;;;;;;;15.40;11.90;;;;;;;12.96;64.62;100152.02;102555;278;96751;-56
2023/03/22 11:19:35;;;;;;;14.40;10.90;;;;;;;12.97;64.76;100152.78;102563;278;119083;-60
2023/03/22 11:22:30;;;;;;;14.80;12.20;;;;;;;12.98;64.71;100149.44;102545;278;105966;-59
2023/03/22 11:25:17;;;;;;;16.80;13.60;;;;;;;13.01;64.92;100147.89;102564;278;113499;-58
2023/03/22 11:28:06;;;;;;;12.60;11.00;;;;;;;13.06;64.88;100147.30;102504;278;94898;-56
2023/03/22 11:30:57;;;;;;;13.10;10.90;;;;;;;13.11;64.80;100144.81;102536;278;97011;-56
2023/03/22 11:33:35;;;;;;;14.30;11.30;;;;;;;13.16;64.79;100142.64;102362;278;120453;-58
2023/03/22 11:36:20;;;;;;;14.40;11.20;;;;;;;13.25;64.93;100139.70;102560;278;105014;-60
2023/03/22 11:39:07;;;;;;;14.70;11.80;;;;;;;13.16;64.59;100134.80;102421;278;113769;-55
2023/03/22 11:41:45;;;;;;;14.40;11.90;;;;;;;13.17;64.99;100134.83;102519;278;94639;-54
2023/03/22 11:44:23;;;;;;;16.30;13.30;;;;;;;13.16;65.05;100135.09;102548;278;96954;-55
2023/03/22 11:47:04;;;;;;;13.60;11.20;;;;;;;13.17;65.12;100130.79;102518;278;120753;-55
2023/03/22 11:49:48;;;;;;;14.10;10.60;;;;;;;13.17;64.99;100125.36;102431;278;106975;-59
2023/03/22 11:52:26;;;;;;;14.20;11.20;;;;;;;13.08;64.67;100119.16;102546;278;114592;-61
2023/03/22 11:55:07;;;;;;;14.00;11.20;;;;;;;13.03;65.01;100117.77;102535;278;94831;-59
2023/03/22 11:57:43;;;;;;;14.60;11.50;;;;;;;13.09;64.77;100115.57;102504;278;98389;-60
2023/03/22 12:00:26;;;;;;;13.40;11.50;;;;;;;13.10;64.96;100111.82;102525;267;120359;-53
2023/03/22 12:03:08;;;;;;;16.50;12.20;;;;;;;13.15;65.03;100107.46;102505;278;104503;-56
2023/03/22 12:05:48;;;;;;;14.30;11.10;;;;;;;13.28;65.25;100102.63;102530;278;115139;-56
2023/03/22 12:08:41;;;;;;;13.10;10.90;;;;;;;13.36;65.04;100104.42;102541;278;94981;-54
2023/03/22 12:11:28;;;;;;;14.30;11.60;;;;;;;13.44;64.76;100097.39;102577;278;98849;-60
2023/03/22 12:14:09;;;;;;;15.40;12.30;;;;;;;13.43;64.63;100097.68;102558;278;120076;-56
2023/03/22 12:16:50;;;;;;;14.70;10.60;;;;;;;13.48;64.59;100091.77;102538;278;103820;-56
2023/03/22 12:19:49;;;;;;;13.00;10.80;;;;;;;13.58;64.58;100092.40;102564;278;112894;-54